Terminal Aerodrome Forecast
Issued by NWS

Home | Current Version | Previous Version | Graphics & Text | Print | Product List | Glossary On
Versions: 1 2 3 4 5 6 7 8 9 10 11 12 13 14 15 16 17
209
FTUS43 KBIS 221139
TAFMOT
TAF
KMOT 221139Z 2212/2312 22009KT P6SM SKC
     FM221600 21013KT P6SM SCT120 BKN180
     FM221800 22016G24KT P6SM VCSH BKN060 OVC080
     FM222300 24016G25KT P6SM BKN100 WS020/26040KT
     FM230400 26017G25KT P6SM BKN110 WS020/28040KT
     FM231000 29028G41KT P6SM VCSH BKN050 WS020/30040KT=

USA.gov is the U.S. government's official web portal to all federal, state and local government web resources and services.